Latest Weather Observations for Leigh Creek

IDS60801

Issued at 5:01 pm CST Saturday 1 August 2015 (issued every 30 minutes, with the page automatically refreshed every 10 minutes)

About weather observations | Map of weather stations | Latest weather observations for SA | Other Formats
Station Details ID: 017110 Name: LEIGH CREEK AIRPORT Lat: -30.60 Lon: 138.42 Height: 258.8 m
Data from the previous 72 hours. | See also: Recent months at Leigh Creek
Date/Time
CST
Temp
°C
App
Temp
°C
Dew
Point
Rel
Hum
%
Delta-T
°C
Wind Press
QNH
hPa
Press
MSL
hPa
Rain
since 9 am
mm
Dir
 
Spd
km/h
Gust
km/h
Spd
kts
Gust
kts
01/05:00pm 24.9 15.9 -6.4 12 12.9 NNW 33 41 18 22 1012.2 1012.2 0.0
01/04:30pm 25.5 15.7 -7.1 11 13.4 NNW 37 46 20 25 1012.2 1012.2 0.0
01/04:00pm 26.0 16.6 -6.7 11 13.6 NNW 35 48 19 26 1012.2 1012.2 0.0
01/03:30pm 26.5 17.0 -7.6 10 14.0 NNW 35 46 19 25 1012.5 1012.4 0.0
01/03:00pm 26.6 17.1 -7.5 10 14.0 NNW 35 48 19 26 1012.8 1012.7 0.0
01/02:30pm 26.9 16.7 -7.3 10 14.2 NNW 39 50 21 27 1013.1 1013.0 0.0
01/02:00pm 26.9 17.4 -7.3 10 14.2 NNW 35 46 19 25 1013.4 1013.3 0.0
01/01:30pm 26.6 17.1 -7.5 10 14.0 NNW 35 46 19 25 1014.0 1013.9 0.0
01/01:00pm 25.9 16.7 -8.0 10 13.7 NNW 33 44 18 24 1014.4 1014.4 0.0
01/12:30pm 25.0 15.8 -8.7 10 13.3 NNW 33 43 18 23 1015.2 1015.2 0.0
01/12:00pm 24.8 16.2 -7.6 11 13.1 N 30 35 16 19 1015.6 1015.6 0.0
01/11:30am 23.5 15.3 -7.5 12 12.4 N 28 35 15 19 1016.2 1016.2 0.0
01/11:00am 22.3 14.1 -7.4 13 11.7 N 28 35 15 19 1016.8 1016.7 0.0
01/10:30am 21.7 14.3 -6.9 14 11.3 N 24 33 13 18 1017.2 1017.1 0.0
01/10:00am 20.3 13.8 -6.3 16 10.5 N 20 28 11 15 1017.5 1017.5 0.0
01/09:30am 18.6 12.2 -6.9 17 9.8 NNW 19 22 10 12 1017.5 1017.5 0.0
01/09:00am 18.2 12.3 -5.8 19 9.4 NNW 17 20 9 11 1017.4 1017.6 0.0
01/08:30am 16.4 12.5 -4.8 23 8.3 NW 7 11 4 6 1017.3 1017.5 0.0
01/08:00am 14.1 9.1 -4.1 28 7.1 N 13 15 7 8 1016.7 1016.8 0.0
01/07:30am 11.7 6.6 -4.8 31 6.1 NNW 13 13 7 7 1016.6 1016.7 0.0
01/07:00am 12.3 7.5 -5.7 28 6.6 NNW 11 13 6 7 1016.3 1016.5 0.0
01/06:30am 11.3 7.3 -5.2 31 6.0 NNW 7 9 4 5 1016.2 1016.4 0.0
01/06:00am 11.0 6.7 -5.0 32 5.9 NNW 9 11 5 6 1015.9 1016.1 0.0
01/05:30am 11.6 6.9 -4.9 31 6.1 NNW 11 13 6 7 1015.9 1016.1 0.0
01/05:00am 10.1 5.5 -4.3 36 5.3 NNW 11 13 6 7 1015.9 1016.1 0.0
01/04:30am 10.2 5.3 -3.8 37 5.2 N 13 13 7 7 1015.9 1016.1 0.0
01/04:00am 10.9 5.1 -4.3 34 5.7 NNW 17 17 9 9 1015.8 1016.0 0.0
01/03:30am 12.1 7.1 -4.5 31 6.2 NW 13 15 7 8 1016.0 1016.2 0.0
01/03:00am 11.7 7.2 -3.6 34 5.8 NW 11 13 6 7 1016.2 1016.4 0.0
01/02:30am 11.5 7.3 -3.8 34 5.8 NW 9 11 5 6 1016.7 1016.8 0.0
01/02:00am 12.8 8.6 -3.9 31 6.4 N 9 11 5 6 1016.9 1017.0 0.0
01/01:30am 13.9 9.0 -3.8 29 6.9 N 13 17 7 9 1017.1 1017.2 0.0
01/01:00am 13.3 9.5 -3.4 31 6.5 N 7 11 4 6 1017.2 1017.3 0.0
01/12:30am 12.3 7.4 -3.1 34 6.0 N 13 13 7 7 1017.3 1017.5 0.0
01/12:00am 12.6 7.0 -2.8 34 6.0 N 17 20 9 11 1017.5 1017.7 0.0
 
Date/Time
CST
Temp
°C
App
Temp
°C
Dew
Point
Rel
Hum
%
Delta-T
°C
Wind Press
QNH
hPa
Press
MSL
hPa
Rain
since 9 am
mm
Dir
 
Spd
km/h
Gust
km/h
Spd
kts
Gust
kts
31/11:30pm 11.5 6.0 -2.0 39 5.3 N 17 19 9 10 1017.7 1017.9 0.0
31/11:00pm 11.9 6.0 -2.3 37 5.6 N 19 20 10 11 1017.9 1018.1 0.0
31/10:30pm 12.9 6.8 -2.2 35 6.0 N 20 22 11 12 1018.1 1018.3 0.0
31/10:00pm 12.1 7.4 -2.1 37 5.6 N 13 15 7 8 1018.5 1018.7 0.0
31/09:30pm 13.0 7.8 -2.5 34 6.1 N 15 17 8 9 1018.6 1018.8 0.0
31/09:00pm 14.3 9.5 -2.6 31 6.8 N 13 15 7 8 1018.5 1018.7 0.0
31/08:30pm 14.9 10.5 -2.5 30 7.0 N 11 13 6 7 1018.4 1018.6 0.0
31/08:00pm 14.8 9.6 -2.6 30 7.0 N 15 17 8 9 1018.3 1018.5 0.0
31/07:30pm 15.3 10.1 -2.6 29 7.3 N 15 17 8 9 1018.0 1018.2 0.0
31/07:00pm 16.8 11.6 -2.8 26 8.0 N 15 20 8 11 1017.8 1018.0 0.0
31/06:30pm 17.6 12.3 -3.2 24 8.5 N 15 19 8 10 1017.7 1017.9 0.0
31/06:00pm 18.8 13.2 -3.3 22 9.1 N 17 22 9 12 1017.8 1018.0 0.0
31/05:30pm 20.4 14.1 -4.0 19 10.1 N 20 30 11 16 1017.7 1017.9 0.0
31/05:00pm 21.4 14.7 -3.9 18 10.6 N 22 32 12 17 1017.5 1017.7 0.0
31/04:30pm 22.1 13.9 -4.1 17 11.0 N 30 43 16 23 1017.6 1017.8 0.0
31/04:00pm 22.5 15.0 -4.5 16 11.3 NNW 26 35 14 19 1017.7 1017.9 0.0
31/03:30pm 22.7 14.8 -4.4 16 11.4 NNW 28 39 15 21 1017.9 1018.1 0.0
31/03:00pm 22.3 14.9 -3.9 17 11.1 NNW 26 35 14 19 1018.1 1018.3 0.0
31/02:30pm 22.4 14.6 -3.8 17 11.1 NNW 28 35 15 19 1018.5 1018.7 0.0
31/02:00pm 22.9 15.8 -4.2 16 11.5 NNW 24 35 13 19 1019.0 1019.2 0.0
31/01:30pm 23.1 16.5 -3.3 17 11.4 N 22 32 12 17 1019.6 1019.8 0.0
31/01:00pm 21.8 15.5 -4.3 17 10.9 NNW 20 30 11 16 1020.2 1020.4 0.0
31/12:30pm 21.4 15.1 -3.9 18 10.6 NNW 20 28 11 15 1020.9 1021.1 0.0
31/12:00pm 21.2 14.9 -4.0 18 10.5 N 20 26 11 14 1021.2 1021.4 0.0
31/11:30am 20.4 14.1 -4.0 19 10.1 N 20 26 11 14 1021.7 1021.9 0.0
31/11:00am 19.6 13.6 -2.7 22 9.4 N 19 24 10 13 1022.1 1022.3 0.0
31/10:30am 18.6 13.0 -2.9 23 8.9 N 17 20 9 11 1022.3 1022.5 0.0
31/10:00am 17.2 13.7 -1.0 29 7.8 N 7 11 4 6 1022.3 1022.5 0.0
31/09:30am 13.6 11.6 -0.4 38 5.8 CALM 0 0 0 0 1022.5 1022.7 0.0
31/09:00am 11.2 9.3 0.3 47 4.5 CALM 0 0 0 0 1022.4 1022.6 0.0
31/08:30am 9.6 7.6 0.2 52 3.8 CALM 0 0 0 0 1022.2 1022.4 0.0
31/08:00am 7.4 3.6 -0.8 56 3.2 ESE 9 11 5 6 1022.1 1022.3 0.0
31/07:30am 5.7 1.8 -1.7 59 2.8 SE 9 15 5 8 1022.0 1022.2 0.0
31/07:00am 4.0 0.6 -2.0 65 2.2 SE 6 7 3 4 1021.9 1022.1 0.0
31/06:30am 4.3 1.3 -1.9 64 2.3 SE 4 9 2 5 1021.6 1021.8 0.0
31/06:00am 5.2 1.7 -1.7 61 2.6 S 7 9 4 5 1021.3 1021.5 0.0
31/05:30am 4.8 1.4 -1.8 62 2.4 SSW 6 9 3 5 1021.3 1021.5 0.0
31/05:00am 4.9 2.6 -2.0 61 2.5 CALM 0 6 0 3 1021.2 1021.4 0.0
31/04:30am 5.3 1.4 -1.6 61 2.6 ESE 9 13 5 7 1021.2 1021.4 0.0
31/04:00am 5.3 0.6 -1.6 61 2.6 ESE 13 15 7 8 1021.3 1021.5 0.0
31/03:30am 5.3 1.9 -1.8 60 2.6 SE 6 7 3 4 1021.4 1021.6 0.0
31/03:00am 5.2 1.2 -1.9 60 2.6 SE 9 11 5 6 1021.4 1021.6 0.0
31/02:30am 6.3 2.4 -1.6 57 3.0 SE 9 13 5 7 1021.6 1021.8 0.0
31/02:00am 5.9 2.3 -2.0 57 2.9 ESE 7 11 4 6 1022.1 1022.3 0.0
31/01:30am 6.9 3.0 -1.7 54 3.2 ESE 9 13 5 7 1022.1 1022.3 0.0
31/01:00am 6.8 2.5 -1.8 54 3.2 ESE 11 11 6 6 1022.3 1022.5 0.0
31/12:30am 7.6 3.3 -1.9 51 3.6 ESE 11 13 6 7 1022.4 1022.6 0.0
31/12:00am 8.2 4.2 -1.9 49 3.8 SE 9 11 5 6 1022.6 1022.8 0.0
 
Date/Time
CST
Temp
°C
App
Temp
°C
Dew
Point
Rel
Hum
%
Delta-T
°C
Wind Press
QNH
hPa
Press
MSL
hPa
Rain
since 9 am
mm
Dir
 
Spd
km/h
Gust
km/h
Spd
kts
Gust
kts
30/11:30pm 7.9 4.9 -1.6 51 3.6 ESE 4 7 2 4 1022.6 1022.8 0.0
30/11:00pm 7.8 4.4 -1.7 51 3.6 ESE 6 9 3 5 1022.7 1022.9 0.0
30/10:30pm 9.1 6.9 -1.9 46 4.2 CALM 0 0 0 0 1023.0 1023.2 0.0
30/10:00pm 8.9 6.7 -1.8 47 4.1 CALM 0 0 0 0 1022.9 1023.1 0.0
30/09:30pm 10.2 6.6 -2.1 42 4.8 E 7 9 4 5 1022.7 1022.9 0.0
30/09:00pm 10.2 6.3 -1.8 43 4.7 E 9 11 5 6 1022.6 1022.8 0.0
30/08:30pm 11.0 7.4 -2.4 39 5.2 N 7 9 4 5 1022.4 1022.6 0.0
30/08:00pm 10.9 6.9 -2.1 40 5.1 N 9 11 5 6 1022.3 1022.5 0.0
30/07:30pm 12.2 8.8 -2.4 36 5.7 NNW 6 7 3 4 1022.2 1022.4 0.0
30/07:00pm 13.7 9.6 -2.7 32 6.5 N 9 11 5 6 1021.9 1022.1 0.0
30/06:30pm 14.8 11.1 -2.6 30 7.0 N 7 9 4 5 1021.8 1022.0 0.0
30/06:00pm 15.1 11.7 -2.3 30 7.1 N 6 13 3 7 1021.4 1021.6 0.0
30/05:30pm 16.1 11.3 -2.9 27 7.7 N 13 15 7 8 1021.3 1021.5 0.0
30/05:00pm 17.4 12.2 -2.8 25 8.3 NNW 15 19 8 10 1021.1 1021.3 0.0
30/04:30pm 17.9 11.7 -3.5 23 8.7 N 20 26 11 14 1021.0 1021.2 0.0
30/04:00pm 18.5 13.3 -3.0 23 8.9 N 15 22 8 12 1021.4 1021.6 0.0
30/03:30pm 18.0 12.9 -1.8 26 8.4 N 15 20 8 11 1021.8 1022.0 0.0
30/03:00pm 17.6 11.7 -2.1 26 8.2 NNW 19 24 10 13 1022.0 1022.2 0.0
30/02:30pm 17.2 11.1 -2.4 26 8.1 NNW 20 32 11 17 1021.9 1022.1 0.0
30/02:00pm 16.8 10.8 -1.8 28 7.8 N 20 26 11 14 1022.0 1022.2 0.0
30/01:30pm 17.5 10.7 -2.2 26 8.2 NNW 24 30 13 16 1022.7 1022.9 0.0
30/01:00pm 16.6 10.2 -2.0 28 7.8 N 22 30 12 16 1023.4 1023.6 0.0
30/12:30pm 17.0 10.2 -2.1 27 7.9 N 24 33 13 18 1024.0 1024.3 0.0
30/12:00pm 16.4 9.3 -1.2 30 7.4 N 26 37 14 20 1024.5 1024.8 0.0
30/11:30am 14.9 8.3 -0.4 35 6.5 N 24 33 13 18 1025.0 1025.2 0.0
30/11:00am 14.9 8.4 0.4 37 6.3 N 24 33 13 18 1025.5 1025.7 0.0
30/10:30am 14.2 7.4 0.5 39 5.9 N 26 32 14 17 1026.1 1026.3 0.0
30/10:00am 13.2 6.7 0.6 42 5.4 N 24 30 13 16 1026.3 1026.5 0.0
30/09:30am 12.5 6.1 1.2 46 4.8 N 24 33 13 18 1026.2 1026.4 0.0
30/09:00am 11.5 4.8 1.2 49 4.4 N 26 35 14 19 1025.9 1026.1 0.0
30/08:51am 11.2 4.5 1.2 50 4.2 N 26 35 14 19 1025.6 1025.8 0.0
30/08:30am 9.1 5.1 0.3 54 3.6 N 11 17 6 9 1025.9 1026.1 0.0
30/08:00am 7.3 3.2 -0.4 58 3.0 NNW 11 13 6 7 1026.1 1026.3 0.0
30/07:30am 5.7 3.5 -1.4 60 2.7 CALM 0 7 0 4 1025.7 1025.9 0.0
30/07:00am 4.6 1.6 -1.8 63 2.4 N 4 7 2 4 1024.9 1025.1 0.0
30/06:30am 5.6 2.1 -1.5 60 2.6 N 7 11 4 6 1024.8 1025.0 0.0
30/06:00am 5.2 1.3 -1.7 61 2.5 NNE 9 11 5 6 1024.7 1024.9 0.0
30/05:30am 4.8 2.6 -1.6 63 2.4 CALM 0 0 0 0 1024.3 1024.6 0.0
30/05:00am 4.2 0.8 -1.8 65 2.2 NNE 6 9 3 5 1024.2 1024.5 0.0
30/04:30am 5.1 1.8 -1.6 62 2.5 NNE 6 9 3 5 1024.5 1024.8 0.0
30/04:00am 4.6 2.0 -1.6 64 2.3 NNE 2 7 1 4 1024.7 1024.9 0.0
30/03:30am 4.5 2.3 -1.9 63 2.3 CALM 0 0 0 0 1024.7 1024.9 0.0
30/03:00am 6.2 2.0 -1.2 59 2.8 NNE 11 17 6 9 1025.0 1025.2 0.0
30/02:30am 4.8 1.3 -1.6 63 2.4 NNE 7 9 4 5 1025.3 1025.5 0.0
30/02:00am 3.4 -1.0 -2.3 66 2.0 NNE 11 11 6 6 1025.5 1025.7 0.0
30/01:30am 3.0 0.7 -2.3 68 1.9 CALM 0 0 0 0 1026.0 1026.2 0.0
30/01:00am 4.2 1.9 -2.0 64 2.3 CALM 0 0 0 0 1026.2 1026.4 0.0
30/12:30am 4.3 2.0 -2.1 63 2.3 CALM 0 0 0 0 1026.5 1026.7 0.0
30/12:00am 4.8 2.5 -2.3 60 2.6 CALM 0 0 0 0 1026.7 1026.9 0.0
 
Date/Time
CST
Temp
°C
App
Temp
°C
Dew
Point
Rel
Hum
%
Delta-T
°C
Wind Press
QNH
hPa
Press
MSL
hPa
Rain
since 9 am
mm
Dir
 
Spd
km/h
Gust
km/h
Spd
kts
Gust
kts
29/11:30pm 6.5 2.6 -1.4 57 3.0 NNE 9 11 5 6 1027.0 1027.3 0.0
29/11:00pm 4.3 1.3 -1.7 65 2.2 ENE 4 7 2 4 1027.0 1027.3 0.0
29/10:30pm 4.3 0.9 -2.1 63 2.3 ENE 6 7 3 4 1027.3 1027.6 0.0
29/10:00pm 5.2 1.2 -1.9 60 2.6 ENE 9 11 5 6 1027.5 1027.8 0.0
29/09:30pm 5.6 3.3 -2.0 58 2.8 CALM 0 0 0 0 1027.9 1028.2 0.0
29/09:00pm 6.3 2.7 -2.1 55 3.1 NNW 7 9 4 5 1027.8 1028.1 0.0
29/08:30pm 6.9 3.3 -2.3 52 3.4 N 7 11 4 6 1027.8 1028.1 0.0
29/08:00pm 7.6 4.0 -1.9 51 3.6 N 7 9 4 5 1027.8 1028.1 0.0
29/07:30pm 7.7 5.5 -1.8 51 3.6 CALM 0 0 0 0 1028.0 1028.3 0.0
29/07:00pm 8.9 5.9 -1.8 47 4.1 NNW 4 7 2 4 1027.9 1028.2 0.0
29/06:30pm 9.7 6.4 -1.6 45 4.4 NNW 6 6 3 3 1027.5 1027.8 0.0
29/06:00pm 10.6 7.0 -1.8 42 4.8 NNW 7 9 4 5 1027.4 1027.7 0.0
29/05:30pm 12.3 7.5 -2.3 36 5.7 N 13 15 7 8 1027.5 1027.8 0.0

Other Formats:

Comma delimited format used in spreadsheet applications
http://www.bom.gov.au/fwo/IDS60801/IDS60801.94674.axf

JavaScript Object Notation format (JSON) in row-major order
http://www.bom.gov.au/fwo/IDS60801/IDS60801.94674.json